sensor_id;sensor_type;location;lat;lon;timestamp;P1;P2;P0
55754;PMS5003;41674;52.290;-1.474;2023-04-25T00:01:29;9;6;
55754;PMS5003;41674;52.290;-1.474;2023-04-25T00:03:58;8;6;
55754;PMS5003;41674;52.290;-1.474;2023-04-25T00:06:28;5;4;
55754;PMS5003;41674;52.290;-1.474;2023-04-25T00:08:58;7;6;
55754;PMS5003;41674;52.290;-1.474;2023-04-25T00:11:27;5;5;
55754;PMS5003;41674;52.290;-1.474;2023-04-25T00:13:57;6;6;
55754;PMS5003;41674;52.290;-1.474;2023-04-25T00:16:27;8;6;
55754;PMS5003;41674;52.290;-1.474;2023-04-25T00:18:56;9;6;
55754;PMS5003;41674;52.290;-1.474;2023-04-25T00:21:26;5;5;
55754;PMS5003;41674;52.290;-1.474;2023-04-25T00:23:56;6;5;
55754;PMS5003;41674;52.290;-1.474;2023-04-25T00:26:26;5;5;
55754;PMS5003;41674;52.290;-1.474;2023-04-25T00:28:55;7;5;
55754;PMS5003;41674;52.290;-1.474;2023-04-25T00:31:25;6;4;
55754;PMS5003;41674;52.290;-1.474;2023-04-25T00:33:55;8;6;
55754;PMS5003;41674;52.290;-1.474;2023-04-25T00:36:24;7;6;
55754;PMS5003;41674;52.290;-1.474;2023-04-25T00:38:54;4;4;
55754;PMS5003;41674;52.290;-1.474;2023-04-25T00:41:24;6;6;
55754;PMS5003;41674;52.290;-1.474;2023-04-25T00:43:54;5;5;
55754;PMS5003;41674;52.290;-1.474;2023-04-25T00:46:23;9;6;
55754;PMS5003;41674;52.290;-1.474;2023-04-25T00:48:53;8;7;
55754;PMS5003;41674;52.290;-1.474;2023-04-25T00:51:23;6;6;
55754;PMS5003;41674;52.290;-1.474;2023-04-25T00:53:52;7;6;
55754;PMS5003;41674;52.290;-1.474;2023-04-25T00:56:22;5;5;
55754;PMS5003;41674;52.290;-1.474;2023-04-25T00:58:52;8;6;
55754;PMS5003;41674;52.290;-1.474;2023-04-25T01:01:21;7;5;
55754;PMS5003;41674;52.290;-1.474;2023-04-25T01:03:51;6;6;
55754;PMS5003;41674;52.290;-1.474;2023-04-25T01:06:21;9;6;
55754;PMS5003;41674;52.290;-1.474;2023-04-25T01:08:51;6;6;
55754;PMS5003;41674;52.290;-1.474;2023-04-25T01:11:20;4;4;
55754;PMS5003;41674;52.290;-1.474;2023-04-25T01:13:50;10;5;
55754;PMS5003;41674;52.290;-1.474;2023-04-25T01:16:19;7;7;
55754;PMS5003;41674;52.290;-1.474;2023-04-25T01:18:49;7;6;
55754;PMS5003;41674;52.290;-1.474;2023-04-25T01:21:18;6;6;
55754;PMS5003;41674;52.290;-1.474;2023-04-25T01:23:48;7;6;
55754;PMS5003;41674;52.290;-1.474;2023-04-25T01:26:18;7;6;
55754;PMS5003;41674;52.290;-1.474;2023-04-25T01:28:48;8;8;
55754;PMS5003;41674;52.290;-1.474;2023-04-25T01:31:17;8;7;
55754;PMS5003;41674;52.290;-1.474;2023-04-25T01:33:47;8;7;
55754;PMS5003;41674;52.290;-1.474;2023-04-25T01:36:17;4;4;
55754;PMS5003;41674;52.290;-1.474;2023-04-25T01:38:47;6;4;
55754;PMS5003;41674;52.290;-1.474;2023-04-25T01:41:16;8;8;
55754;PMS5003;41674;52.290;-1.474;2023-04-25T01:43:46;8;6;
55754;PMS5003;41674;52.290;-1.474;2023-04-25T01:46:16;7;7;
55754;PMS5003;41674;52.290;-1.474;2023-04-25T01:48:46;8;8;
55754;PMS5003;41674;52.290;-1.474;2023-04-25T01:51:15;6;6;
55754;PMS5003;41674;52.290;-1.474;2023-04-25T01:53:45;9;7;
55754;PMS5003;41674;52.290;-1.474;2023-04-25T01:56:15;6;6;
55754;PMS5003;41674;52.290;-1.474;2023-04-25T01:58:45;12;8;
55754;PMS5003;41674;52.290;-1.474;2023-04-25T02:01:14;8;5;
55754;PMS5003;41674;52.290;-1.474;2023-04-25T02:03:44;7;7;
55754;PMS5003;41674;52.290;-1.474;2023-04-25T02:06:13;10;10;
55754;PMS5003;41674;52.290;-1.474;2023-04-25T02:08:43;6;6;
55754;PMS5003;41674;52.290;-1.474;2023-04-25T02:11:13;7;7;
55754;PMS5003;41674;52.290;-1.474;2023-04-25T02:13:42;7;6;
55754;PMS5003;41674;52.290;-1.474;2023-04-25T02:16:12;7;7;
55754;PMS5003;41674;52.290;-1.474;2023-04-25T02:18:42;7;7;
55754;PMS5003;41674;52.290;-1.474;2023-04-25T02:21:12;9;9;
55754;PMS5003;41674;52.290;-1.474;2023-04-25T02:23:41;7;7;
55754;PMS5003;41674;52.290;-1.474;2023-04-25T02:26:11;14;9;
55754;PMS5003;41674;52.290;-1.474;2023-04-25T02:28:40;11;9;
55754;PMS5003;41674;52.290;-1.474;2023-04-25T02:31:09;11;7;
55754;PMS5003;41674;52.290;-1.474;2023-04-25T02:33:38;13;11;
55754;PMS5003;41674;52.290;-1.474;2023-04-25T02:36:08;8;8;
55754;PMS5003;41674;52.290;-1.474;2023-04-25T02:38:38;8;6;
55754;PMS5003;41674;52.290;-1.474;2023-04-25T02:41:08;8;8;
55754;PMS5003;41674;52.290;-1.474;2023-04-25T02:43:37;11;9;
55754;PMS5003;41674;52.290;-1.474;2023-04-25T02:46:07;8;7;
55754;PMS5003;41674;52.290;-1.474;2023-04-25T02:48:37;11;9;
55754;PMS5003;41674;52.290;-1.474;2023-04-25T02:51:06;9;8;
55754;PMS5003;41674;52.290;-1.474;2023-04-25T02:53:36;8;8;
55754;PMS5003;41674;52.290;-1.474;2023-04-25T02:56:05;11;9;
55754;PMS5003;41674;52.290;-1.474;2023-04-25T02:58:35;14;10;
55754;PMS5003;41674;52.290;-1.474;2023-04-25T03:01:05;10;9;
55754;PMS5003;41674;52.290;-1.474;2023-04-25T03:03:34;10;9;
55754;PMS5003;41674;52.290;-1.474;2023-04-25T03:06:04;12;10;
55754;PMS5003;41674;52.290;-1.474;2023-04-25T03:08:33;12;10;
55754;PMS5003;41674;52.290;-1.474;2023-04-25T03:11:03;13;11;
55754;PMS5003;41674;52.290;-1.474;2023-04-25T03:13:33;8;8;
55754;PMS5003;41674;52.290;-1.474;2023-04-25T03:16:03;10;9;
55754;PMS5003;41674;52.290;-1.474;2023-04-25T03:18:32;9;9;
55754;PMS5003;41674;52.290;-1.474;2023-04-25T03:21:02;8;8;
55754;PMS5003;41674;52.290;-1.474;2023-04-25T03:23:31;13;10;
55754;PMS5003;41674;52.290;-1.474;2023-04-25T03:26:01;9;8;
55754;PMS5003;41674;52.290;-1.474;2023-04-25T03:28:30;14;10;
55754;PMS5003;41674;52.290;-1.474;2023-04-25T03:31:00;9;9;
55754;PMS5003;41674;52.290;-1.474;2023-04-25T03:33:30;7;6;
55754;PMS5003;41674;52.290;-1.474;2023-04-25T03:35:59;11;9;
55754;PMS5003;41674;52.290;-1.474;2023-04-25T03:38:29;10;8;
55754;PMS5003;41674;52.290;-1.474;2023-04-25T03:40:59;8;8;
55754;PMS5003;41674;52.290;-1.474;2023-04-25T03:43:29;9;8;
55754;PMS5003;41674;52.290;-1.474;2023-04-25T03:45:58;11;8;
55754;PMS5003;41674;52.290;-1.474;2023-04-25T03:48:28;7;7;
55754;PMS5003;41674;52.290;-1.474;2023-04-25T03:50:58;9;8;
55754;PMS5003;41674;52.290;-1.474;2023-04-25T03:53:27;10;8;
55754;PMS5003;41674;52.290;-1.474;2023-04-25T03:55:57;10;9;
55754;PMS5003;41674;52.290;-1.474;2023-04-25T03:58:27;9;8;
55754;PMS5003;41674;52.290;-1.474;2023-04-25T04:01:01;9;8;
55754;PMS5003;41674;52.290;-1.474;2023-04-25T04:03:26;11;9;
55754;PMS5003;41674;52.290;-1.474;2023-04-25T04:05:56;9;9;
55754;PMS5003;41674;52.290;-1.474;2023-04-25T04:08:25;9;9;
55754;PMS5003;41674;52.290;-1.474;2023-04-25T04:10:56;9;8;
55754;PMS5003;41674;52.290;-1.474;2023-04-25T04:13:25;7;7;
55754;PMS5003;41674;52.290;-1.474;2023-04-25T04:15:55;8;6;
55754;PMS5003;41674;52.290;-1.474;2023-04-25T04:18:25;8;7;
55754;PMS5003;41674;52.290;-1.474;2023-04-25T04:20:54;5;5;
55754;PMS5003;41674;52.290;-1.474;2023-04-25T04:23:24;9;7;
55754;PMS5003;41674;52.290;-1.474;2023-04-25T04:25:54;10;8;
55754;PMS5003;41674;52.290;-1.474;2023-04-25T04:28:24;7;7;
55754;PMS5003;41674;52.290;-1.474;2023-04-25T04:30:53;7;6;
55754;PMS5003;41674;52.290;-1.474;2023-04-25T04:33:23;8;6;
55754;PMS5003;41674;52.290;-1.474;2023-04-25T04:35:53;5;5;
55754;PMS5003;41674;52.290;-1.474;2023-04-25T04:38:22;10;8;
55754;PMS5003;41674;52.290;-1.474;2023-04-25T04:40:52;10;8;
55754;PMS5003;41674;52.290;-1.474;2023-04-25T04:43:22;9;8;
55754;PMS5003;41674;52.290;-1.474;2023-04-25T04:45:52;11;7;
55754;PMS5003;41674;52.290;-1.474;2023-04-25T04:48:21;7;7;
55754;PMS5003;41674;52.290;-1.474;2023-04-25T04:50:51;6;5;
55754;PMS5003;41674;52.290;-1.474;2023-04-25T04:53:21;6;5;
55754;PMS5003;41674;52.290;-1.474;2023-04-25T04:55:51;7;7;
55754;PMS5003;41674;52.290;-1.474;2023-04-25T04:58:21;7;6;
55754;PMS5003;41674;52.290;-1.474;2023-04-25T05:00:50;6;6;
55754;PMS5003;41674;52.290;-1.474;2023-04-25T05:03:20;6;6;
55754;PMS5003;41674;52.290;-1.474;2023-04-25T05:05:50;9;8;
55754;PMS5003;41674;52.290;-1.474;2023-04-25T05:08:19;5;4;
55754;PMS5003;41674;52.290;-1.474;2023-04-25T05:13:18;9;7;
55754;PMS5003;41674;52.290;-1.474;2023-04-25T05:15:48;6;5;
55754;PMS5003;41674;52.290;-1.474;2023-04-25T05:18:18;7;7;
55754;PMS5003;41674;52.290;-1.474;2023-04-25T05:20:48;6;6;
55754;PMS5003;41674;52.290;-1.474;2023-04-25T05:23:18;6;6;
55754;PMS5003;41674;52.290;-1.474;2023-04-25T05:25:47;6;6;
55754;PMS5003;41674;52.290;-1.474;2023-04-25T05:28:17;7;6;
55754;PMS5003;41674;52.290;-1.474;2023-04-25T05:30:47;9;8;
55754;PMS5003;41674;52.290;-1.474;2023-04-25T05:33:16;7;7;
55754;PMS5003;41674;52.290;-1.474;2023-04-25T05:35:46;5;5;
55754;PMS5003;41674;52.290;-1.474;2023-04-25T05:38:16;9;8;
55754;PMS5003;41674;52.290;-1.474;2023-04-25T05:40:45;10;8;
55754;PMS5003;41674;52.290;-1.474;2023-04-25T05:43:15;11;11;
55754;PMS5003;41674;52.290;-1.474;2023-04-25T05:45:45;9;9;
55754;PMS5003;41674;52.290;-1.474;2023-04-25T05:48:15;9;9;
55754;PMS5003;41674;52.290;-1.474;2023-04-25T05:50:44;11;11;
55754;PMS5003;41674;52.290;-1.474;2023-04-25T05:53:14;14;13;
55754;PMS5003;41674;52.290;-1.474;2023-04-25T05:55:44;12;7;
55754;PMS5003;41674;52.290;-1.474;2023-04-25T05:58:14;16;9;
55754;PMS5003;41674;52.290;-1.474;2023-04-25T06:00:44;9;7;
55754;PMS5003;41674;52.290;-1.474;2023-04-25T06:03:13;10;10;
55754;PMS5003;41674;52.290;-1.474;2023-04-25T06:05:42;10;9;
55754;PMS5003;41674;52.290;-1.474;2023-04-25T06:08:13;10;10;
55754;PMS5003;41674;52.290;-1.474;2023-04-25T06:10:42;6;6;
55754;PMS5003;41674;52.290;-1.474;2023-04-25T06:13:11;7;6;
55754;PMS5003;41674;52.290;-1.474;2023-04-25T06:15:41;6;5;
55754;PMS5003;41674;52.290;-1.474;2023-04-25T06:18:11;7;6;
55754;PMS5003;41674;52.290;-1.474;2023-04-25T06:20:41;10;9;
55754;PMS5003;41674;52.290;-1.474;2023-04-25T06:23:10;10;9;
55754;PMS5003;41674;52.290;-1.474;2023-04-25T06:25:40;9;7;
55754;PMS5003;41674;52.290;-1.474;2023-04-25T06:28:10;11;9;
55754;PMS5003;41674;52.290;-1.474;2023-04-25T06:30:39;9;8;
55754;PMS5003;41674;52.290;-1.474;2023-04-25T06:33:09;26;21;
55754;PMS5003;41674;52.290;-1.474;2023-04-25T06:35:39;9;9;
55754;PMS5003;41674;52.290;-1.474;2023-04-25T06:38:08;8;8;
55754;PMS5003;41674;52.290;-1.474;2023-04-25T06:40:38;9;8;
55754;PMS5003;41674;52.290;-1.474;2023-04-25T06:43:07;9;7;
55754;PMS5003;41674;52.290;-1.474;2023-04-25T06:45:37;8;7;
55754;PMS5003;41674;52.290;-1.474;2023-04-25T06:48:07;6;5;
55754;PMS5003;41674;52.290;-1.474;2023-04-25T06:50:36;9;9;
55754;PMS5003;41674;52.290;-1.474;2023-04-25T06:53:06;10;8;
55754;PMS5003;41674;52.290;-1.474;2023-04-25T06:55:35;8;8;
55754;PMS5003;41674;52.290;-1.474;2023-04-25T06:58:05;8;8;
55754;PMS5003;41674;52.290;-1.474;2023-04-25T07:00:35;8;8;
55754;PMS5003;41674;52.290;-1.474;2023-04-25T07:03:04;9;9;
55754;PMS5003;41674;52.290;-1.474;2023-04-25T07:05:34;9;8;
55754;PMS5003;41674;52.290;-1.474;2023-04-25T07:08:04;11;10;
55754;PMS5003;41674;52.290;-1.474;2023-04-25T07:10:34;8;7;
55754;PMS5003;41674;52.290;-1.474;2023-04-25T07:13:03;9;9;
55754;PMS5003;41674;52.290;-1.474;2023-04-25T07:15:33;8;7;
55754;PMS5003;41674;52.290;-1.474;2023-04-25T07:18:02;9;6;
55754;PMS5003;41674;52.290;-1.474;2023-04-25T07:20:32;7;6;
55754;PMS5003;41674;52.290;-1.474;2023-04-25T07:23:02;9;7;
55754;PMS5003;41674;52.290;-1.474;2023-04-25T07:25:32;5;5;
55754;PMS5003;41674;52.290;-1.474;2023-04-25T07:28:01;4;4;
55754;PMS5003;41674;52.290;-1.474;2023-04-25T07:30:31;6;6;
55754;PMS5003;41674;52.290;-1.474;2023-04-25T07:33:00;6;5;
55754;PMS5003;41674;52.290;-1.474;2023-04-25T07:35:30;6;5;
55754;PMS5003;41674;52.290;-1.474;2023-04-25T07:38:00;5;4;
55754;PMS5003;41674;52.290;-1.474;2023-04-25T07:40:29;7;6;
55754;PMS5003;41674;52.290;-1.474;2023-04-25T07:42:59;4;4;
55754;PMS5003;41674;52.290;-1.474;2023-04-25T07:45:29;3;3;
55754;PMS5003;41674;52.290;-1.474;2023-04-25T07:47:58;4;4;
55754;PMS5003;41674;52.290;-1.474;2023-04-25T07:50:28;4;4;
55754;PMS5003;41674;52.290;-1.474;2023-04-25T07:52:58;6;4;
55754;PMS5003;41674;52.290;-1.474;2023-04-25T07:55:28;8;5;
55754;PMS5003;41674;52.290;-1.474;2023-04-25T07:57:57;6;2;
55754;PMS5003;41674;52.290;-1.474;2023-04-25T08:00:27;5;4;
55754;PMS5003;41674;52.290;-1.474;2023-04-25T08:02:56;4;2;
55754;PMS5003;41674;52.290;-1.474;2023-04-25T08:05:26;4;4;
55754;PMS5003;41674;52.290;-1.474;2023-04-25T08:07:56;4;4;
55754;PMS5003;41674;52.290;-1.474;2023-04-25T08:10:25;3;3;
55754;PMS5003;41674;52.290;-1.474;2023-04-25T08:12:55;3;3;
55754;PMS5003;41674;52.290;-1.474;2023-04-25T08:15:25;3;3;
55754;PMS5003;41674;52.290;-1.474;2023-04-25T08:17:54;4;3;
55754;PMS5003;41674;52.290;-1.474;2023-04-25T08:20:24;7;4;
55754;PMS5003;41674;52.290;-1.474;2023-04-25T08:22:54;3;3;
55754;PMS5003;41674;52.290;-1.474;2023-04-25T08:25:24;4;4;
55754;PMS5003;41674;52.290;-1.474;2023-04-25T08:27:53;4;4;
55754;PMS5003;41674;52.290;-1.474;2023-04-25T08:30:23;6;3;
55754;PMS5003;41674;52.290;-1.474;2023-04-25T08:32:53;2;2;
55754;PMS5003;41674;52.290;-1.474;2023-04-25T08:35:22;4;4;
55754;PMS5003;41674;52.290;-1.474;2023-04-25T08:37:52;5;4;
55754;PMS5003;41674;52.290;-1.474;2023-04-25T08:40:22;5;5;
55754;PMS5003;41674;52.290;-1.474;2023-04-25T08:42:52;9;6;
55754;PMS5003;41674;52.290;-1.474;2023-04-25T08:45:21;8;5;
55754;PMS5003;41674;52.290;-1.474;2023-04-25T08:47:51;5;4;
55754;PMS5003;41674;52.290;-1.474;2023-04-25T08:50:21;4;4;
55754;PMS5003;41674;52.290;-1.474;2023-04-25T08:52:50;6;5;
55754;PMS5003;41674;52.290;-1.474;2023-04-25T08:55:20;4;4;
55754;PMS5003;41674;52.290;-1.474;2023-04-25T08:57:49;5;5;
55754;PMS5003;41674;52.290;-1.474;2023-04-25T09:00:19;5;5;
55754;PMS5003;41674;52.290;-1.474;2023-04-25T09:02:49;5;5;
55754;PMS5003;41674;52.290;-1.474;2023-04-25T09:05:18;3;3;
55754;PMS5003;41674;52.290;-1.474;2023-04-25T09:07:48;6;4;
55754;PMS5003;41674;52.290;-1.474;2023-04-25T09:10:18;5;5;
55754;PMS5003;41674;52.290;-1.474;2023-04-25T09:15:17;4;4;
55754;PMS5003;41674;52.290;-1.474;2023-04-25T09:17:47;4;4;
55754;PMS5003;41674;52.290;-1.474;2023-04-25T09:20:16;6;3;
55754;PMS5003;41674;52.290;-1.474;2023-04-25T09:22:46;3;3;
55754;PMS5003;41674;52.290;-1.474;2023-04-25T09:25:16;4;2;
55754;PMS5003;41674;52.290;-1.474;2023-04-25T09:27:50;4;4;
55754;PMS5003;41674;52.290;-1.474;2023-04-25T09:30:15;2;2;
55754;PMS5003;41674;52.290;-1.474;2023-04-25T09:32:44;3;3;
55754;PMS5003;41674;52.290;-1.474;2023-04-25T09:37:44;3;3;
55754;PMS5003;41674;52.290;-1.474;2023-04-25T09:40:13;5;4;
55754;PMS5003;41674;52.290;-1.474;2023-04-25T09:42:43;7;7;
55754;PMS5003;41674;52.290;-1.474;2023-04-25T09:45:13;3;3;
55754;PMS5003;41674;52.290;-1.474;2023-04-25T09:47:48;3;3;
55754;PMS5003;41674;52.290;-1.474;2023-04-25T09:50:15;4;4;
55754;PMS5003;41674;52.290;-1.474;2023-04-25T09:52:42;4;4;
55754;PMS5003;41674;52.290;-1.474;2023-04-25T09:55:11;3;3;
55754;PMS5003;41674;52.290;-1.474;2023-04-25T09:57:41;5;3;
55754;PMS5003;41674;52.290;-1.474;2023-04-25T10:00:11;6;4;
55754;PMS5003;41674;52.290;-1.474;2023-04-25T10:02:40;6;4;
55754;PMS5003;41674;52.290;-1.474;2023-04-25T10:05:10;7;5;
55754;PMS5003;41674;52.290;-1.474;2023-04-25T10:07:39;5;5;
55754;PMS5003;41674;52.290;-1.474;2023-04-25T10:10:09;6;5;
55754;PMS5003;41674;52.290;-1.474;2023-04-25T10:12:39;7;6;
55754;PMS5003;41674;52.290;-1.474;2023-04-25T10:15:08;6;5;
55754;PMS5003;41674;52.290;-1.474;2023-04-25T10:17:38;4;4;
55754;PMS5003;41674;52.290;-1.474;2023-04-25T10:20:08;7;5;
55754;PMS5003;41674;52.290;-1.474;2023-04-25T10:22:38;5;5;
55754;PMS5003;41674;52.290;-1.474;2023-04-25T10:25:07;7;6;
55754;PMS5003;41674;52.290;-1.474;2023-04-25T10:27:36;4;3;
55754;PMS5003;41674;52.290;-1.474;2023-04-25T10:30:07;4;4;
55754;PMS5003;41674;52.290;-1.474;2023-04-25T10:32:36;4;4;
55754;PMS5003;41674;52.290;-1.474;2023-04-25T10:35:11;7;3;
55754;PMS5003;41674;52.290;-1.474;2023-04-25T10:37:35;5;4;
55754;PMS5003;41674;52.290;-1.474;2023-04-25T10:40:08;5;5;
55754;PMS5003;41674;52.290;-1.474;2023-04-25T10:42:34;4;4;
55754;PMS5003;41674;52.290;-1.474;2023-04-25T10:45:04;4;4;
55754;PMS5003;41674;52.290;-1.474;2023-04-25T10:47:34;2;2;
55754;PMS5003;41674;52.290;-1.474;2023-04-25T10:50:05;4;3;
55754;PMS5003;41674;52.290;-1.474;2023-04-25T10:52:33;4;3;
55754;PMS5003;41674;52.290;-1.474;2023-04-25T10:55:03;3;2;
55754;PMS5003;41674;52.290;-1.474;2023-04-25T10:57:36;4;4;
55754;PMS5003;41674;52.290;-1.474;2023-04-25T11:00:05;4;3;
55754;PMS5003;41674;52.290;-1.474;2023-04-25T11:02:31;2;2;
55754;PMS5003;41674;52.290;-1.474;2023-04-25T11:05:01;4;3;
55754;PMS5003;41674;52.290;-1.474;2023-04-25T11:07:34;4;2;
55754;PMS5003;41674;52.290;-1.474;2023-04-25T11:10:01;5;4;
55754;PMS5003;41674;52.290;-1.474;2023-04-25T11:12:30;6;5;
55754;PMS5003;41674;52.290;-1.474;2023-04-25T11:15:00;3;2;
55754;PMS5003;41674;52.290;-1.474;2023-04-25T11:17:29;3;3;
55754;PMS5003;41674;52.290;-1.474;2023-04-25T11:19:59;4;4;
55754;PMS5003;41674;52.290;-1.474;2023-04-25T11:22:28;3;3;
55754;PMS5003;41674;52.290;-1.474;2023-04-25T11:24:58;4;4;
55754;PMS5003;41674;52.290;-1.474;2023-04-25T11:27:27;5;3;
55754;PMS5003;41674;52.290;-1.474;2023-04-25T11:29:57;4;3;
55754;PMS5003;41674;52.290;-1.474;2023-04-25T11:32:27;3;3;
55754;PMS5003;41674;52.290;-1.474;2023-04-25T11:34:56;5;5;
55754;PMS5003;41674;52.290;-1.474;2023-04-25T11:37:26;5;5;
55754;PMS5003;41674;52.290;-1.474;2023-04-25T11:39:55;4;3;
55754;PMS5003;41674;52.290;-1.474;2023-04-25T11:42:25;5;5;
55754;PMS5003;41674;52.290;-1.474;2023-04-25T11:44:55;3;3;
55754;PMS5003;41674;52.290;-1.474;2023-04-25T11:47:29;5;5;
55754;PMS5003;41674;52.290;-1.474;2023-04-25T11:49:54;4;4;
55754;PMS5003;41674;52.290;-1.474;2023-04-25T11:52:23;4;4;
55754;PMS5003;41674;52.290;-1.474;2023-04-25T11:54:54;4;4;
55754;PMS5003;41674;52.290;-1.474;2023-04-25T11:57:22;7;6;
55754;PMS5003;41674;52.290;-1.474;2023-04-25T11:59:52;6;6;
55754;PMS5003;41674;52.290;-1.474;2023-04-25T12:02:25;5;4;
55754;PMS5003;41674;52.290;-1.474;2023-04-25T12:04:51;5;5;
55754;PMS5003;41674;52.290;-1.474;2023-04-25T12:07:21;5;3;
55754;PMS5003;41674;52.290;-1.474;2023-04-25T12:09:51;8;6;
55754;PMS5003;41674;52.290;-1.474;2023-04-25T12:12:20;4;4;
55754;PMS5003;41674;52.290;-1.474;2023-04-25T12:17:19;7;5;
55754;PMS5003;41674;52.290;-1.474;2023-04-25T12:19:49;4;4;
55754;PMS5003;41674;52.290;-1.474;2023-04-25T12:22:19;5;5;
55754;PMS5003;41674;52.290;-1.474;2023-04-25T12:24:49;4;4;
55754;PMS5003;41674;52.290;-1.474;2023-04-25T12:27:18;5;5;
55754;PMS5003;41674;52.290;-1.474;2023-04-25T12:29:52;4;4;
55754;PMS5003;41674;52.290;-1.474;2023-04-25T12:32:17;7;5;
55754;PMS5003;41674;52.290;-1.474;2023-04-25T12:34:47;7;6;
55754;PMS5003;41674;52.290;-1.474;2023-04-25T12:37:17;6;4;
55754;PMS5003;41674;52.290;-1.474;2023-04-25T12:39:46;7;6;
55754;PMS5003;41674;52.290;-1.474;2023-04-25T12:42:15;6;6;
55754;PMS5003;41674;52.290;-1.474;2023-04-25T12:44:45;4;4;
55754;PMS5003;41674;52.290;-1.474;2023-04-25T12:47:14;5;4;
55754;PMS5003;41674;52.290;-1.474;2023-04-25T12:49:44;6;4;
55754;PMS5003;41674;52.290;-1.474;2023-04-25T12:52:13;5;5;
55754;PMS5003;41674;52.290;-1.474;2023-04-25T12:54:43;6;5;
55754;PMS5003;41674;52.290;-1.474;2023-04-25T12:57:12;6;6;
55754;PMS5003;41674;52.290;-1.474;2023-04-25T12:59:42;5;5;
55754;PMS5003;41674;52.290;-1.474;2023-04-25T13:02:12;5;5;
55754;PMS5003;41674;52.290;-1.474;2023-04-25T13:04:41;5;5;
55754;PMS5003;41674;52.290;-1.474;2023-04-25T13:07:11;8;5;
55754;PMS5003;41674;52.290;-1.474;2023-04-25T13:09:40;4;4;
55754;PMS5003;41674;52.290;-1.474;2023-04-25T13:12:10;5;5;
55754;PMS5003;41674;52.290;-1.474;2023-04-25T13:14:40;7;7;
55754;PMS5003;41674;52.290;-1.474;2023-04-25T13:17:09;4;4;
55754;PMS5003;41674;52.290;-1.474;2023-04-25T13:19:39;6;5;
55754;PMS5003;41674;52.290;-1.474;2023-04-25T13:22:09;7;5;
55754;PMS5003;41674;52.290;-1.474;2023-04-25T13:24:38;7;6;
55754;PMS5003;41674;52.290;-1.474;2023-04-25T13:27:08;9;5;
55754;PMS5003;41674;52.290;-1.474;2023-04-25T13:29:37;5;4;
55754;PMS5003;41674;52.290;-1.474;2023-04-25T13:32:08;5;5;
55754;PMS5003;41674;52.290;-1.474;2023-04-25T13:34:36;8;7;
55754;PMS5003;41674;52.290;-1.474;2023-04-25T13:37:06;5;5;
55754;PMS5003;41674;52.290;-1.474;2023-04-25T13:39:35;6;6;
55754;PMS5003;41674;52.290;-1.474;2023-04-25T13:42:05;7;7;
55754;PMS5003;41674;52.290;-1.474;2023-04-25T13:44:35;10;6;
55754;PMS5003;41674;52.290;-1.474;2023-04-25T13:47:04;7;7;
55754;PMS5003;41674;52.290;-1.474;2023-04-25T13:49:34;6;6;
55754;PMS5003;41674;52.290;-1.474;2023-04-25T13:52:03;7;7;
55754;PMS5003;41674;52.290;-1.474;2023-04-25T13:54:33;10;7;
55754;PMS5003;41674;52.290;-1.474;2023-04-25T13:57:02;8;7;
55754;PMS5003;41674;52.290;-1.474;2023-04-25T13:59:32;9;9;
55754;PMS5003;41674;52.290;-1.474;2023-04-25T14:02:02;8;7;
55754;PMS5003;41674;52.290;-1.474;2023-04-25T14:04:31;8;8;
55754;PMS5003;41674;52.290;-1.474;2023-04-25T14:07:01;8;7;
55754;PMS5003;41674;52.290;-1.474;2023-04-25T14:09:30;9;6;
55754;PMS5003;41674;52.290;-1.474;2023-04-25T14:12:00;6;6;
55754;PMS5003;41674;52.290;-1.474;2023-04-25T14:14:29;7;7;
55754;PMS5003;41674;52.290;-1.474;2023-04-25T14:16:59;5;5;
55754;PMS5003;41674;52.290;-1.474;2023-04-25T14:19:28;8;8;
55754;PMS5003;41674;52.290;-1.474;2023-04-25T14:21:58;9;6;
55754;PMS5003;41674;52.290;-1.474;2023-04-25T14:24:27;8;6;
55754;PMS5003;41674;52.290;-1.474;2023-04-25T14:26:57;7;6;
55754;PMS5003;41674;52.290;-1.474;2023-04-25T14:29:26;10;9;
55754;PMS5003;41674;52.290;-1.474;2023-04-25T14:34:26;10;8;
55754;PMS5003;41674;52.290;-1.474;2023-04-25T14:36:55;8;7;
55754;PMS5003;41674;52.290;-1.474;2023-04-25T14:39:25;8;8;
55754;PMS5003;41674;52.290;-1.474;2023-04-25T14:41:54;9;9;
55754;PMS5003;41674;52.290;-1.474;2023-04-25T14:44:24;10;8;
55754;PMS5003;41674;52.290;-1.474;2023-04-25T14:46:53;10;9;
55754;PMS5003;41674;52.290;-1.474;2023-04-25T14:49:23;6;5;
55754;PMS5003;41674;52.290;-1.474;2023-04-25T14:54:22;10;10;
55754;PMS5003;41674;52.290;-1.474;2023-04-25T14:56:52;8;8;
55754;PMS5003;41674;52.290;-1.474;2023-04-25T14:59:21;10;9;
55754;PMS5003;41674;52.290;-1.474;2023-04-25T15:01:51;6;6;
55754;PMS5003;41674;52.290;-1.474;2023-04-25T15:04:20;5;5;
55754;PMS5003;41674;52.290;-1.474;2023-04-25T15:06:50;6;6;
55754;PMS5003;41674;52.290;-1.474;2023-04-25T15:09:20;8;8;
55754;PMS5003;41674;52.290;-1.474;2023-04-25T15:11:49;10;10;
55754;PMS5003;41674;52.290;-1.474;2023-04-25T15:14:19;10;9;
55754;PMS5003;41674;52.290;-1.474;2023-04-25T15:16:48;8;5;
55754;PMS5003;41674;52.290;-1.474;2023-04-25T15:19:18;7;7;
55754;PMS5003;41674;52.290;-1.474;2023-04-25T15:21:47;9;6;
55754;PMS5003;41674;52.290;-1.474;2023-04-25T15:24:17;8;8;
55754;PMS5003;41674;52.290;-1.474;2023-04-25T15:26:46;8;7;
55754;PMS5003;41674;52.290;-1.474;2023-04-25T15:29:16;11;9;
55754;PMS5003;41674;52.290;-1.474;2023-04-25T15:31:45;8;8;
55754;PMS5003;41674;52.290;-1.474;2023-04-25T15:34:15;9;8;
55754;PMS5003;41674;52.290;-1.474;2023-04-25T15:36:45;9;9;
55754;PMS5003;41674;52.290;-1.474;2023-04-25T15:39:14;10;8;
55754;PMS5003;41674;52.290;-1.474;2023-04-25T15:41:43;10;10;
55754;PMS5003;41674;52.290;-1.474;2023-04-25T15:44:13;5;5;
55754;PMS5003;41674;52.290;-1.474;2023-04-25T15:46:43;9;8;
55754;PMS5003;41674;52.290;-1.474;2023-04-25T15:49:12;6;6;
55754;PMS5003;41674;52.290;-1.474;2023-04-25T15:51:42;7;7;
55754;PMS5003;41674;52.290;-1.474;2023-04-25T15:54:11;7;5;
55754;PMS5003;41674;52.290;-1.474;2023-04-25T15:56:41;6;6;
55754;PMS5003;41674;52.290;-1.474;2023-04-25T15:59:10;6;6;
55754;PMS5003;41674;52.290;-1.474;2023-04-25T16:01:40;7;7;
55754;PMS5003;41674;52.290;-1.474;2023-04-25T16:04:09;8;8;
55754;PMS5003;41674;52.290;-1.474;2023-04-25T16:06:39;7;7;
55754;PMS5003;41674;52.290;-1.474;2023-04-25T16:09:08;9;7;
55754;PMS5003;41674;52.290;-1.474;2023-04-25T16:11:38;7;7;
55754;PMS5003;41674;52.290;-1.474;2023-04-25T16:14:07;8;8;
55754;PMS5003;41674;52.290;-1.474;2023-04-25T16:16:36;6;6;
55754;PMS5003;41674;52.290;-1.474;2023-04-25T16:19:06;8;8;
55754;PMS5003;41674;52.290;-1.474;2023-04-25T16:21:36;9;9;
55754;PMS5003;41674;52.290;-1.474;2023-04-25T16:24:05;8;7;
55754;PMS5003;41674;52.290;-1.474;2023-04-25T16:26:35;6;6;
55754;PMS5003;41674;52.290;-1.474;2023-04-25T16:29:05;8;8;
55754;PMS5003;41674;52.290;-1.474;2023-04-25T16:31:34;7;7;
55754;PMS5003;41674;52.290;-1.474;2023-04-25T16:34:03;7;7;
55754;PMS5003;41674;52.290;-1.474;2023-04-25T16:36:33;8;8;
55754;PMS5003;41674;52.290;-1.474;2023-04-25T16:39:02;5;5;
55754;PMS5003;41674;52.290;-1.474;2023-04-25T16:41:32;8;7;
55754;PMS5003;41674;52.290;-1.474;2023-04-25T16:44:01;9;8;
55754;PMS5003;41674;52.290;-1.474;2023-04-25T16:46:31;9;9;
55754;PMS5003;41674;52.290;-1.474;2023-04-25T16:49:00;7;7;
55754;PMS5003;41674;52.290;-1.474;2023-04-25T16:51:30;9;8;
55754;PMS5003;41674;52.290;-1.474;2023-04-25T16:53:59;9;8;
55754;PMS5003;41674;52.290;-1.474;2023-04-25T16:56:29;9;8;
55754;PMS5003;41674;52.290;-1.474;2023-04-25T16:58:58;9;7;
55754;PMS5003;41674;52.290;-1.474;2023-04-25T17:01:28;6;6;